createdAt,value
2023-05-05T00:01:28.731Z,1.63
2023-05-05T00:06:33.745Z,1.50
2023-05-05T00:11:37.325Z,1.85
2023-05-05T00:16:40.993Z,1.95
2023-05-05T00:21:45.975Z,2.28
2023-05-05T00:26:49.548Z,2.10
2023-05-05T00:31:53.199Z,2.10
2023-05-05T00:36:58.166Z,2.35
2023-05-05T00:42:01.823Z,2.55
2023-05-05T00:47:05.921Z,2.13
2023-05-05T00:52:11.707Z,2.30
2023-05-05T00:57:15.468Z,2.10
2023-05-05T01:02:19.049Z,2.10
2023-05-05T01:07:28.880Z,1.80
2023-05-05T01:12:49.007Z,1.83
2023-05-05T01:17:56.935Z,1.95
2023-05-05T01:23:04.042Z,2.35
2023-05-05T01:28:13.199Z,2.10
2023-05-05T01:33:21.965Z,2.53
2023-05-05T01:38:29.301Z,2.55
2023-05-05T01:43:35.143Z,1.80
2023-05-05T01:48:42.354Z,1.75
2023-05-05T01:53:47.297Z,1.70
2023-05-05T01:58:51.734Z,1.55
2023-05-05T02:03:58.255Z,1.50
2023-05-05T02:09:02.479Z,2.05
2023-05-05T02:14:07.457Z,1.30
2023-05-05T02:19:13.344Z,1.67
2023-05-05T02:24:17.460Z,2.08
2023-05-05T02:29:22.748Z,2.53
2023-05-05T02:34:28.972Z,3.70
2023-05-05T02:39:34.076Z,5.22
2023-05-05T02:44:43.371Z,5.53
2023-05-05T02:49:50.306Z,6.55
2023-05-05T02:54:54.275Z,7.05
2023-05-05T03:00:00.425Z,8.27
2023-05-05T03:05:08.628Z,9.40
2023-05-05T03:10:20.283Z,9.68
2023-05-05T03:15:29.770Z,9.80
2023-05-05T03:20:35.197Z,9.68
2023-05-05T03:25:44.543Z,10.55
2023-05-05T03:30:53.156Z,11.20
2023-05-05T03:35:58.660Z,10.77
2023-05-05T03:41:03.668Z,11.00
2023-05-05T03:46:08.735Z,12.65
2023-05-05T03:51:14.473Z,14.52
2023-05-05T03:56:18.631Z,15.48
2023-05-05T04:01:23.621Z,18.70
2023-05-05T04:06:29.457Z,19.40
2023-05-05T04:11:33.278Z,19.33
2023-05-05T04:16:37.603Z,19.90
2023-05-05T04:21:42.650Z,21.30
2023-05-05T04:26:46.610Z,20.60
2023-05-05T04:31:51.068Z,20.55
2023-05-05T04:36:56.113Z,21.65
2023-05-05T04:41:59.790Z,20.88
2023-05-05T04:47:04.351Z,19.08
2023-05-05T04:52:09.561Z,18.63
2023-05-05T04:57:13.497Z,17.45
2023-05-05T05:02:18.393Z,16.55
2023-05-05T05:07:23.438Z,16.25
2023-05-05T05:12:28.132Z,15.38
2023-05-05T05:17:31.806Z,14.27
2023-05-05T05:22:38.893Z,14.38
2023-05-05T05:27:50.153Z,15.02
2023-05-05T05:32:59.707Z,15.48
2023-05-05T05:38:04.909Z,15.35
2023-05-05T05:43:08.560Z,13.82
2023-05-05T05:48:14.138Z,14.93
2023-05-05T05:53:19.588Z,15.07
2023-05-05T05:58:23.402Z,14.45
2023-05-05T06:03:27.650Z,15.32
2023-05-05T06:08:33.174Z,14.32
2023-05-05T06:13:36.869Z,14.52
2023-05-05T06:18:41.973Z,13.43
2023-05-05T06:23:47.012Z,13.73
2023-05-05T06:28:51.218Z,14.05
2023-05-05T06:33:54.744Z,12.60
2023-05-05T06:38:59.728Z,11.63
2023-05-05T06:44:03.273Z,12.07
2023-05-05T06:49:06.781Z,11.65
2023-05-05T06:54:11.675Z,10.75
2023-05-05T06:59:15.617Z,9.93
2023-05-05T07:04:19.289Z,9.88
2023-05-05T07:09:24.291Z,8.02
2023-05-05T07:14:27.838Z,7.55
2023-05-05T07:19:31.554Z,6.82
2023-05-05T07:24:36.442Z,5.35
2023-05-05T07:29:40.679Z,5.85
2023-05-05T07:34:44.195Z,5.97
2023-05-05T07:39:50.416Z,6.57
2023-05-05T07:44:54.022Z,5.72
2023-05-05T07:49:57.799Z,4.78
2023-05-05T07:55:02.866Z,5.00
2023-05-05T08:00:07.451Z,4.72
2023-05-05T08:05:17.607Z,4.35
2023-05-05T08:10:23.037Z,4.45
2023-05-05T08:15:26.739Z,4.03
2023-05-05T08:20:31.260Z,3.88
2023-05-05T08:25:38.974Z,3.13
2023-05-05T08:30:42.855Z,2.72
2023-05-05T08:35:46.693Z,3.33
2023-05-05T08:40:52.953Z,3.78
2023-05-05T08:45:56.830Z,4.00
2023-05-05T08:51:03.990Z,3.70
2023-05-05T08:56:10.975Z,3.88
2023-05-05T09:01:15.173Z,3.30
2023-05-05T09:06:19.106Z,2.80
2023-05-05T09:11:24.036Z,2.00
2023-05-05T09:16:27.676Z,1.33
2023-05-05T09:21:32.163Z,1.50
2023-05-05T09:26:37.437Z,1.40
2023-05-05T09:31:41.366Z,1.40
2023-05-05T09:36:47.690Z,1.38
2023-05-05T09:41:52.741Z,1.33
2023-05-05T09:46:58.284Z,1.90
2023-05-05T09:52:14.359Z,2.65
2023-05-05T09:57:28.800Z,2.67
2023-05-05T10:02:33.833Z,2.65
2023-05-05T10:07:38.027Z,3.28
2023-05-05T10:12:43.760Z,3.30
2023-05-05T10:18:05.168Z,3.58
2023-05-05T10:23:12.404Z,3.60
2023-05-05T10:28:22.445Z,3.42
2023-05-05T10:33:32.221Z,4.10
2023-05-05T10:38:36.594Z,3.00
2023-05-05T10:43:41.853Z,3.30
2023-05-05T10:48:48.995Z,2.70
2023-05-05T10:53:56.154Z,2.47
2023-05-05T10:59:01.386Z,2.47
2023-05-05T11:04:21.901Z,2.70
2023-05-05T11:09:29.179Z,2.92
2023-05-05T11:14:34.414Z,2.85
2023-05-05T11:19:48.198Z,3.03
2023-05-05T11:24:52.160Z,3.75
2023-05-05T11:30:11.256Z,3.50
2023-05-05T11:35:15.582Z,3.88
2023-05-05T11:40:23.429Z,3.85
2023-05-05T11:45:28.398Z,2.47
2023-05-05T11:50:34.789Z,2.70
2023-05-05T11:55:38.425Z,1.52
2023-05-05T12:00:43.404Z,2.15
2023-05-05T12:05:48.816Z,1.88
2023-05-05T12:10:52.607Z,1.95
2023-05-05T12:15:57.730Z,1.65
2023-05-05T12:21:01.314Z,1.55
2023-05-05T12:26:05.376Z,1.80
2023-05-05T12:31:11.672Z,1.95
2023-05-05T12:36:15.656Z,2.50
2023-05-05T12:41:21.203Z,2.20
2023-05-05T12:46:26.763Z,2.10
2023-05-05T12:51:31.425Z,1.40
2023-05-05T12:56:36.128Z,1.70
2023-05-05T13:01:51.168Z,2.80
2023-05-05T13:07:10.733Z,2.40
2023-05-05T13:12:14.726Z,2.67
